Condiciones actuales en los principales Aeropuertos de España-Datos Metar

 

LEAL - Alicante
Actualización: 06/04/2020 13:00
Partly Cloudy
Partly Cloudy
 Viento del ESE
Viento: ESE 11 km/h
Temperatura: 18°C
Rocío: 11°C
Humedad: 64%
Barómetro: 1024 hPa
Nubosidad: Partly Cloudy
Visibilidad: 10 km
Cloud details: Partly Cloudy 671 m
2020/04/06 11:00 LEAL 061100Z 12006KT 080V180 9999 SCT022 18/11 Q1024 NOSIG
LEAB - Albacete
Actualización: 06/04/2020 13:00
Partly Cloudy
Partly Cloudy
 Viento del SE
Viento: SE 15 km/h
Temperatura: 15°C
Rocío: 10°C
Humedad: 72%
Barómetro: 1023 hPa
Nubosidad: Partly Cloudy
Visibilidad: 10 km
Cloud details: Few Clouds 610 m
Partly Cloudy 1372 m
2020/04/06 11:00 LEAB 061100Z 14008KT 9999 FEW020 SCT045 15/10 Q1023 NOSIG
LEAM - Almería
Actualización: 06/04/2020 13:00
Despejado
Despejado
 Viento del SSO
Viento: SSO 15 km/h
Temperatura: 17°C
Rocío: 12°C
Humedad: 73%
Barómetro: 1023 hPa
Resumen: Despejado
Visibilidad: greater than 10 km
2020/04/06 11:00 LEAM 061100Z AUTO 20008KT CAVOK 17/12 Q1023
 
LEAS - Asturias/Aviles
Actualización: 06/04/2020 13:00
Mostly Cloudy
Mostly Cloudy
 Viento del SE
Viento: SE 11 km/h
Temperatura: 13°C
Rocío: 9°C
Humedad: 77%
Barómetro: 1021 hPa
Nubosidad: Mostly Cloudy
Visibilidad: 10 km
Cloud details: Few Clouds 579 m
Mostly Cloudy 975 m
2020/04/06 11:00 LEAS 061100Z 14006KT 090V170 9999 FEW019 BKN032 13/09 Q1021 NOSIG
LEBZ - Badajoz/Talavera la Real
Actualización: 06/04/2020 13:00
Partly Cloudy
Partly Cloudy
 Viento del E
Viento: E 2 km/h
Temperatura: 18°C
Rocío: 13°C
Humedad: 73%
Barómetro: 1021 hPa
Nubosidad: Partly Cloudy
Visibilidad: 9 km
2020/04/06 11:00 LEBZ 061100Z AUTO 10001KT 9000 NSC 18/13 Q1021
LEBL - Barcelona
Actualización: 06/04/2020 13:00
Few Clouds
Few Clouds
 Viento del SE
Viento: SE 9 km/h
Temperatura: 16°C
Rocío: 11°C
Humedad: 72%
Barómetro: 1025 hPa
Nubosidad: Few Clouds
Visibilidad: 10 km
Cloud details: Few Clouds 610 m
2020/04/06 11:00 LEBL 061100Z 14005KT 110V190 9999 FEW020 16/11 Q1025 NOSIG
 
LEBB - Bilbao
Actualización: 06/04/2020 13:00
Lluvia débil, Muy nuboso
Lluvia débil, Muy nuboso
 Viento del varies
Viento: varies 4 km/h
Temperatura: 14°C
Rocío: 13°C
Humedad: 94%
Barómetro: 1021 hPa
Resumen: Light Rain
Nubosidad: Mostly Cloudy
Visibilidad: 10 km
Cloud details: Few Clouds 305 m
Partly Cloudy 762 m
Mostly Cloudy 1524 m
2020/04/06 11:00 LEBB 061100Z VRB02KT 9999 -RA FEW010 SCT025 BKN050 14/13 Q1021 TEMPO 3000 SHRA SCT030TCU
LEBG - Burgos/Villafría
Actualización: 06/04/2020 13:00
Mostly Cloudy
Mostly Cloudy
 Viento del SO
Viento: SO 24 km/h
Temperatura: 13°C
Rocío: 10°C
Humedad: 82%
Barómetro: 1020 hPa
Nubosidad: Mostly Cloudy
Visibilidad: 10 km
Cloud details: Few Clouds 457 m
Mostly Cloudy 701 m
2020/04/06 11:00 LEBG 061100Z AUTO 22013KT 9999 FEW015 BKN023 13/10 Q1020
LEBA - Córdoba
Actualización: 06/04/2020 13:00
Cubierto
Cubierto
 Viento del E
Viento: E 6 km/h
Temperatura: 16°C
Rocío: 13°C
Humedad: 83%
Barómetro: 1022 hPa
Nubosidad: Cubierto
Visibilidad: 10 km
Cloud details: Cubierto 945 m
2020/04/06 11:00 LEBA 061100Z AUTO 08003KT 9999 OVC031 16/13 Q1022
 
LEGE - Gerona
Actualización: 06/04/2020 13:00
Few Clouds
Few Clouds
 Viento del S
Viento: S 17 km/h
Temperatura: 17°C
Rocío: 8°C
Humedad: 56%
Barómetro: 1024 hPa
Nubosidad: Few Clouds
Visibilidad: 10 km
Cloud details: Few Clouds 1219 m
2020/04/06 11:00 LEGE 061100Z 17009KT 140V200 9999 FEW040 17/08 Q1024
LEGR - Granada
Actualización: 06/04/2020 13:00
Despejado
Despejado
 Viento del varies
Viento: varies 2 km/h
Temperatura: 18°C
Rocío: 11°C
Humedad: 64%
Barómetro: 1022 hPa
Resumen: Despejado
Visibilidad: greater than 10 km
2020/04/06 11:00 LEGR 061100Z AUTO VRB01KT CAVOK 18/11 Q1022
GCHI - Hierro
Actualización: 06/04/2020 13:00
Few Clouds
Few Clouds
 Viento del NNE
Viento: NNE 11 km/h
Temperatura: 24°C
Rocío: 19°C
Humedad: 74%
Barómetro: 1023 hPa
Nubosidad: Few Clouds
Visibilidad: 10 km
Cloud details: Few Clouds 914 m
2020/04/06 11:00 GCHI 061100Z 03006KT 010V070 9999 FEW030 24/19 Q1023
 
LEIB - Ibiza
Actualización: 06/04/2020 13:00
Few Clouds
Few Clouds
 Viento del E
Viento: E 13 km/h
Temperatura: 17°C
Rocío: 11°C
Humedad: 68%
Barómetro: 1024 hPa
Nubosidad: Few Clouds
Visibilidad: 10 km
Cloud details: Few Clouds 701 m
2020/04/06 11:00 LEIB 061100Z 10007KT 070V130 9999 FEW023 17/11 Q1024 NOSIG
LEJR - Jerez de la Frontera
Actualización: 06/04/2020 13:30
Cubierto
Cubierto
 Viento del SSE
Viento: SSE 17 km/h
Temperatura: 18°C
Rocío: 14°C
Humedad: 78%
Barómetro: 1022 hPa
Nubosidad: Cubierto
Visibilidad: 10 km
Cloud details: Cubierto 640 m
2020/04/06 11:30 LEJR 061130Z AUTO 15009KT 110V210 9999 OVC021 18/14 Q1022
LECO - A Coruña
Actualización: 06/04/2020 13:00
Despejado
Despejado
 Viento del varies
Viento: varies 4 km/h
Temperatura: 16°C
Rocío: 10°C
Humedad: 68%
Barómetro: 1020 hPa
Resumen: Despejado
Visibilidad: greater than 10 km
2020/04/06 11:00 LECO 061100Z AUTO VRB02KT CAVOK 16/10 Q1020
 
GCLA - La Palma
Actualización: 06/04/2020 13:00
Few Clouds
Few Clouds
 Viento del S
Viento: S 11 km/h
Temperatura: 22°C
Rocío: 19°C
Humedad: 83%
Barómetro: 1023 hPa
Nubosidad: Few Clouds
Visibilidad: 10 km
Cloud details: Few Clouds 1219 m
2020/04/06 11:00 GCLA 061100Z 17006KT 140V200 9999 FEW040 22/19 Q1023
GCRR - Lanzarote
Actualización: 06/04/2020 13:00
Few Clouds
Few Clouds
 Viento del ESE
Viento: ESE 13 km/h
Temperatura: 21°C
Rocío: 18°C
Humedad: 83%
Barómetro: 1022 hPa
Nubosidad: Few Clouds
Visibilidad: 10 km
Cloud details: Few Clouds 853 m
2020/04/06 11:00 GCRR 061100Z 11007KT 9999 FEW028 21/18 Q1022
GCLP - Las Palmas
Actualización: 06/04/2020 13:00
Few Clouds
Few Clouds
 Viento del NE
Viento: NE 33 km/h
Temperatura: 24°C
Rocío: 16°C
Humedad: 61%
Barómetro: 1022 hPa
Nubosidad: Few Clouds
Visibilidad: 10 km
Cloud details: Few Clouds 914 m
2020/04/06 11:00 GCLP 061100Z 04018KT 9999 FEW030 24/16 Q1022 NOSIG
 
LELN - León
Actualización: 06/04/2020 13:00
Mostly Cloudy
Mostly Cloudy
 Viento del O
Viento: O 11 km/h
Temperatura: 13°C
Rocío: 10°C
Humedad: 82%
Barómetro: 1019 hPa
Nubosidad: Mostly Cloudy
Visibilidad: 10 km
Cloud details: Partly Cloudy 427 m
Mostly Cloudy 1219 m
Mostly Cloudy 1494 m
2020/04/06 11:00 LELN 061100Z AUTO 28006KT 240V350 9999 SCT014 BKN040 BKN049 13/10 Q1019
LELO - Logroño
Actualización: 06/04/2020 13:00
Cubierto
Cubierto
 Viento del ENE
Viento: ENE 19 km/h
Temperatura: 13°C
Rocío: 9°C
Humedad: 77%
Barómetro: 1021 hPa
Nubosidad: Cubierto
Visibilidad: 10 km
Cloud details: Cubierto 579 m
2020/04/06 11:00 LELO 061100Z 07010KT 030V120 9999 OVC019 13/09 Q1021
LECV - Madrid/Colmenar
Actualización: 06/04/2020 13:00
Mostly Cloudy
Mostly Cloudy
 Viento del SSO
Viento: SSO 13 km/h
Temperatura: 13°C
Rocío: 11°C
Humedad: 88%
Barómetro: 1021 hPa
Nubosidad: Mostly Cloudy
Visibilidad: 10 km
Cloud details: Few Clouds 152 m
Mostly Cloudy 274 m
2020/04/06 11:00 LECV 061100Z 21007KT 9999 FEW005 BKN009 13/11 Q1021
 
LEMD - Madrid/Barajas
Actualización: 06/04/2020 13:00
Mostly Cloudy
Mostly Cloudy
 Viento del S
Viento: S 17 km/h
Temperatura: 16°C
Rocío: 13°C
Humedad: 83%
Barómetro: 1021 hPa
Nubosidad: Mostly Cloudy
Visibilidad: 10 km
Cloud details: Few Clouds 366 m
Partly Cloudy 610 m
Mostly Cloudy 1707 m
2020/04/06 11:00 LEMD 061100Z 17009KT 9999 FEW012 SCT020 BKN056 16/13 Q1021 NOSIG
LEVS - Madrid/Cuatro Vientos
Actualización: 06/04/2020 13:00
Mostly Cloudy
Mostly Cloudy
 Viento del OSO
Viento: OSO 15 km/h
Temperatura: 16°C
Rocío: 11°C
Humedad: 72%
Barómetro: 1021 hPa
Nubosidad: Mostly Cloudy
Visibilidad: 10 km
Cloud details: Partly Cloudy 762 m
Mostly Cloudy 1676 m
2020/04/06 11:00 LEVS 061100Z 24008KT 9999 SCT025 BKN055 16/11 Q1021
LEGT - Madrid/Getafe
Actualización: 06/04/2020 13:00
Partly Cloudy
Partly Cloudy
 Viento del OSO
Viento: OSO 13 km/h
Temperatura: 16°C
Rocío: 13°C
Humedad: 83%
Barómetro: 1021 hPa
Nubosidad: Partly Cloudy
Visibilidad: 10 km
Cloud details: Few Clouds 457 m
Partly Cloudy 671 m
2020/04/06 11:00 LEGT 061100Z 24007KT 200V290 9999 FEW015 SCT022 16/13 Q1021
 
LETO - Madrid/Torrejón
Actualización: 06/04/2020 13:00
Mostly Cloudy
Mostly Cloudy
 Viento del S
Viento: S 15 km/h
Temperatura: 15°C
Rocío: 12°C
Humedad: 82%
Barómetro: 1021 hPa
Nubosidad: Mostly Cloudy
Visibilidad: 10 km
Cloud details: Mostly Cloudy 366 m
Mostly Cloudy 610 m
2020/04/06 11:00 LETO 061100Z 17008KT 9999 BKN012 BKN020 15/12 Q1021 NOSIG
LEMG - Málaga
Actualización: 06/04/2020 13:00
Mostly Cloudy
Mostly Cloudy
 Viento del ESE
Viento: ESE 9 km/h
Temperatura: 17°C
Rocío: 13°C
Humedad: 77%
Barómetro: 1024 hPa
Nubosidad: Mostly Cloudy
Visibilidad: 10 km
Cloud details: Few Clouds 579 m
Mostly Cloudy 1067 m
2020/04/06 11:00 LEMG 061100Z 12005KT 080V170 9999 FEW019 BKN035 17/13 Q1024 NOSIG
GEML - Melilla
Actualización: 06/04/2020 13:00
Cubierto
Cubierto
 Viento del NE
Viento: NE 6 km/h
Temperatura: 17°C
Rocío: 13°C
Humedad: 77%
Barómetro: 1023 hPa
Nubosidad: Cubierto
Visibilidad: 10 km
Cloud details: Cubierto 518 m
2020/04/06 11:00 GEML 061100Z AUTO 05003KT 320V130 9999 OVC017 17/13 Q1023
 
LEMH - Mahón
Actualización: 06/04/2020 13:00
Despejado
Despejado
 Viento del ESE
Viento: ESE 9 km/h
Temperatura: 18°C
Rocío: 2°C
Humedad: 34%
Barómetro: 1024 hPa
Resumen: Despejado
Visibilidad: greater than 10 km
2020/04/06 11:00 LEMH 061100Z 11005KT 050V160 CAVOK 18/02 Q1024
LEMO - Morón de La Frontera
Actualización: 06/04/2020 13:00
Mostly Cloudy
Mostly Cloudy
 Viento del varies
Viento: varies 4 km/h
Temperatura: 16°C
Rocío: 14°C
Humedad: 88%
Barómetro: 1022 hPa
Nubosidad: Mostly Cloudy
Visibilidad: 10 km
Cloud details: Mostly Cloudy 914 m
2020/04/06 11:00 LEMO 061100Z VRB02KT 9999 BKN030 16/14 Q1022 NOSIG
LEMI - Murcia/Corvera
Actualización: 06/04/2020 13:00
Partly Cloudy
Partly Cloudy
 Viento del E
Viento: E 6 km/h
Temperatura: 17°C
Rocío: 9°C
Humedad: 59%
Barómetro: 1023 hPa
Nubosidad: Partly Cloudy
Visibilidad: 10 km
Cloud details: Partly Cloudy 762 m
2020/04/06 11:00 LEMI 061100Z 09003KT 9999 SCT025 17/09 Q1023
 
LERI - Murcia/Alcantarilla
Actualización: 06/04/2020 13:00
Mostly Cloudy
Mostly Cloudy
 Viento del varies
Viento: varies 4 km/h
Temperatura: 18°C
Rocío: 10°C
Humedad: 60%
Barómetro: 1023 hPa
Nubosidad: Mostly Cloudy
Visibilidad: 10 km
Cloud details: Mostly Cloudy 914 m
2020/04/06 11:00 LERI 061100Z VRB02KT 9999 BKN030 18/10 Q1023 NOSIG
LELC - Murcia/San Javier
Actualización: 06/04/2020 13:00
Few Clouds
Few Clouds
 Viento del E
Viento: E 9 km/h
Temperatura: 17°C
Rocío: 12°C
Humedad: 73%
Barómetro: 1024 hPa
Nubosidad: Few Clouds
Visibilidad: 10 km
Cloud details: Few Clouds 762 m
2020/04/06 11:00 LELC 061100Z 10005KT 060V140 9999 FEW025 17/12 Q1024 NOSIG
LEPA - Palma de Mallorca
Actualización: 06/04/2020 13:00
Few Clouds
Few Clouds
 Viento del OSO
Viento: OSO 17 km/h
Temperatura: 19°C
Rocío: 8°C
Humedad: 49%
Barómetro: 1024 hPa
Nubosidad: Few Clouds
Visibilidad: 10 km
Cloud details: Few Clouds 914 m
2020/04/06 11:00 LEPA 061100Z 25009KT 200V270 9999 FEW030 19/08 Q1024 NOSIG
 
LEPP - Pamplona
Actualización: 06/04/2020 13:00
Mostly Cloudy
Mostly Cloudy
 Viento del S
Viento: S 6 km/h
Temperatura: 12°C
Rocío: 8°C
Humedad: 77%
Barómetro: 1022 hPa
Nubosidad: Mostly Cloudy
Visibilidad: 10 km
Cloud details: Few Clouds 762 m
Mostly Cloudy 1067 m
2020/04/06 11:00 LEPP 061100Z 19003KT 9999 FEW025 BKN035 12/08 Q1022
LERS - Reus
Actualización: 06/04/2020 13:00
Mostly Cloudy
Mostly Cloudy
 Viento del SE
Viento: SE 11 km/h
Temperatura: 16°C
Rocío: 10°C
Humedad: 68%
Barómetro: 1024 hPa
Nubosidad: Mostly Cloudy
Visibilidad: 10 km
Cloud details: Mostly Cloudy 610 m
2020/04/06 11:00 LERS 061100Z 14006KT 060V190 9999 BKN020 16/10 Q1024
LERT - Rota
Actualización: 06/04/2020 13:00
Cubierto
Cubierto
 Viento del SE
Viento: SE 19 km/h
Temperatura: 16°C
Rocío: 15°C
Humedad: 94%
Barómetro: 1022 hPa
Nubosidad: Cubierto
Visibilidad: 10 km
Cloud details: Mostly Cloudy 549 m
Cubierto 701 m
2020/04/06 11:00 LERT 061100Z 14010KT 110V170 9999 BKN018 OVC023 16/15 Q1022 NOSIG
 
LELL - Sabadell
Actualización: 06/04/2020 13:00
Despejado
Despejado
 Viento del SSE
Viento: SSE 6 km/h
Temperatura: 18°C
Rocío: 10°C
Humedad: 60%
Barómetro: 1024 hPa
Resumen: Despejado
Visibilidad: greater than 10 km
2020/04/06 11:00 LELL 061100Z AUTO 15003KT CAVOK 18/10 Q1024
LESA - Salamanca
Actualización: 06/04/2020 13:00
Mostly Cloudy
Mostly Cloudy
 Viento del OSO
Viento: OSO 15 km/h
Temperatura: 12°C
Rocío: 7°C
Humedad: 72%
Barómetro: 1021 hPa
Nubosidad: Mostly Cloudy
Visibilidad: 10 km
Cloud details: Mostly Cloudy 853 m
2020/04/06 11:00 LESA 061100Z AUTO 25008KT 9999 BKN028 12/07 Q1021
LESO - San Sebastián
Actualización: 06/04/2020 13:00
Partly Cloudy
Partly Cloudy
 Viento del NE
Viento: NE 11 km/h
Temperatura: 16°C
Rocío: 13°C
Humedad: 83%
Barómetro: 1020 hPa
Nubosidad: Partly Cloudy
Visibilidad: 10 km
Cloud details: Partly Cloudy 1981 m
2020/04/06 11:00 LESO 061100Z 04006KT 9999 SCT065 16/13 Q1020
 
LEXJ - Santander
Actualización: 06/04/2020 13:00
Lluvia débil, Muy nuboso
Lluvia débil, Muy nuboso
 Viento del NNO
Viento: NNO 11 km/h
Temperatura: 13°C
Rocío: 11°C
Humedad: 88%
Barómetro: 1022 hPa
Resumen: Light Rain
Nubosidad: Mostly Cloudy
Visibilidad: 5 km
Cloud details: Partly Cloudy 305 m
Mostly Cloudy 762 m
2020/04/06 11:00 LEXJ 061100Z 33006KT 280V010 5000 -RA SCT010 BKN025 13/11 Q1022
LEPA - Palma de Mallorca
Actualización: 06/04/2020 13:00
Few Clouds
Few Clouds
 Viento del OSO
Viento: OSO 17 km/h
Temperatura: 19°C
Rocío: 8°C
Humedad: 49%
Barómetro: 1024 hPa
Nubosidad: Few Clouds
Visibilidad: 10 km
Cloud details: Few Clouds 914 m
2020/04/06 11:00 LEPA 061100Z 25009KT 200V270 9999 FEW030 19/08 Q1024 NOSIG
LEPP - Pamplona
Actualización: 06/04/2020 13:00
Mostly Cloudy
Mostly Cloudy
 Viento del S
Viento: S 6 km/h
Temperatura: 12°C
Rocío: 8°C
Humedad: 77%
Barómetro: 1022 hPa
Nubosidad: Mostly Cloudy
Visibilidad: 10 km
Cloud details: Few Clouds 762 m
Mostly Cloudy 1067 m
2020/04/06 11:00 LEPP 061100Z 19003KT 9999 FEW025 BKN035 12/08 Q1022
 
LEST - Santiago de Compostela
Actualización: 06/04/2020 13:00
Few Clouds
Few Clouds
 Viento del varies
Viento: varies 4 km/h
Temperatura: 13°C
Rocío: 9°C
Humedad: 77%
Barómetro: 1020 hPa
Nubosidad: Few Clouds
Visibilidad: 10 km
Cloud details: Few Clouds 366 m
2020/04/06 11:00 LEST 061100Z VRB02KT 9999 FEW012 13/09 Q1020 NOSIG
LEZL - Sevilla
Actualización: 06/04/2020 13:12
LLuvia, Cubierto
LLuvia, Cubierto
 Viento del varies
Viento: varies 2 km/h
Temperatura: 16°C
Rocío: 15°C
Humedad: 94%
Barómetro: 1022 hPa
Resumen: LLuvia
Nubosidad: Cubierto
Visibilidad: 3 km
Cloud details: Partly Cloudy 244 m
Mostly Cloudy 457 m
Cubierto 610 m
2020/04/06 11:12 LEZL 061112Z VRB01KT 3000 RA SCT008 BKN015 OVC020 16/15 Q1022 NOSIG
GCXO - Tenerife
Actualización: 06/04/2020 13:00
Few Clouds
Few Clouds
 Viento del E
Viento: E 9 km/h
Temperatura: 20°C
Rocío: 16°C
Humedad: 78%
Barómetro: 1024 hPa
Nubosidad: Few Clouds
Visibilidad: 10 km
Cloud details: Few Clouds 427 m
2020/04/06 11:00 GCXO 061100Z 10005KT 340V140 9999 FEW014 20/16 Q1024 NOSIG
 
GCTS - Tenerife-Sur
Actualización: 06/04/2020 13:00
Few Clouds
Few Clouds
 Viento del S
Viento: S 11 km/h
Temperatura: 22°C
Rocío: 17°C
Humedad: 73%
Barómetro: 1023 hPa
Nubosidad: Few Clouds
Visibilidad: 10 km
Cloud details: Few Clouds 914 m
2020/04/06 11:00 GCTS 061100Z 19006KT 150V230 9999 FEW030 22/17 Q1023 NOSIG
LEVC - Valencia
Actualización: 06/04/2020 13:00
Mostly Cloudy
Mostly Cloudy
 Viento del ESE
Viento: ESE 7 km/h
Temperatura: 17°C
Rocío: 11°C
Humedad: 68%
Barómetro: 1024 hPa
Nubosidad: Mostly Cloudy
Visibilidad: 10 km
Cloud details: Mostly Cloudy 762 m
2020/04/06 11:00 LEVC 061100Z 12004KT 060V230 9999 BKN025 17/11 Q1024 NOSIG
LEVD - Valladolid
Actualización: 06/04/2020 13:00
Mostly Cloudy
Mostly Cloudy
 Viento del OSO
Viento: OSO 22 km/h
Temperatura: 13°C
Rocío: 10°C
Humedad: 82%
Barómetro: 1020 hPa
Nubosidad: Mostly Cloudy
Visibilidad: 10 km
Cloud details: Mostly Cloudy 549 m
2020/04/06 11:00 LEVD 061100Z AUTO 24012KT 9999 BKN018 13/10 Q1020
 
LEVX - Vigo
Actualización: 06/04/2020 13:00
Few Clouds
Few Clouds
 Viento del SSO
Viento: SSO 7 km/h
Temperatura: 13°C
Rocío: 12°C
Humedad: 94%
Barómetro: 1020 hPa
Nubosidad: Few Clouds
Visibilidad: 10 km
Cloud details: Few Clouds 549 m
2020/04/06 11:00 LEVX 061100Z 20004KT 160V280 9999 FEW018 13/12 Q1020 NOSIG
LEVT - Vitoria
Actualización: 06/04/2020 13:00
Mostly Cloudy
Mostly Cloudy
 Viento del varies
Viento: varies 2 km/h
Temperatura: 14°C
Rocío: 7°C
Humedad: 63%
Barómetro: 1021 hPa
Nubosidad: Mostly Cloudy
Visibilidad: 10 km
Cloud details: Few Clouds 762 m
Mostly Cloudy 1829 m
2020/04/06 11:00 LEVT 061100Z VRB01KT 9999 FEW025 BKN060 14/07 Q1021
LEZG - Zaragoza
Actualización: 06/04/2020 13:00
Partly Cloudy
Partly Cloudy
 Viento del ESE
Viento: ESE 20 km/h
Temperatura: 15°C
Rocío: 10°C
Humedad: 72%
Barómetro: 1022 hPa
Nubosidad: Partly Cloudy
Visibilidad: 10 km
Cloud details: Partly Cloudy 2286 m
2020/04/06 11:00 LEZG 061100Z 11011KT 070V150 9999 SCT075 15/10 Q1022

La estación de MeteoMurcia.com, publica sus datos en los siguientes proyectos:

Weather Underground PWS IMURCIAP2 Meteoclimatic www.awekas.at

W3Counter
Web Analytics